Aeroporto :
LOGIN :

Iscrizione | Disclaimer

   EN    FR    IT 

 










Sommario :    VFR   VFR Marginale   IFR   IFR Intensivo   IFR Molto Intensivo
Visibilità : 
Base nubi : 
>= 8 km
>= 3000ft
5 / 8 km
1000 / 3000 ft
1500m / 5 km
500 / 1000 ft
800 / 1500m
200 / 500 ft
< 800m
< 200 ft
Simboli :   Temporali  Nebbia  Neve Forte  Precipitazioni Forti  Vento > 20 kt
SIGMETs :   Varie  Temporali  Ghiacco  Turbolenza  Onda orograficha  Ceneri Vulcaniche






- Altitudine del aeroporto : 659 ft
- Codice IATA : LYN


LFLY - Lyon Bron

ULTIMO METAR :
  • 170700Z AUTO VRB02KT 0450 R34/0550N FG VV/// 01/01 Q1007 TEMPO 0300

METARs OBSOLETI :
  • 170630Z AUTO 25002KT 0450 R34/0550N FG VV/// 01/01 Q1007 TEMPO 0300
  • 170600Z AUTO 24003KT 0450 R34/0550N FG VV/// 00/00 Q1007 TEMPO 0300
  • 170530Z AUTO 08001KT 0400 R34/0550N FG VV/// 00/00 Q1007 TEMPO 0300
  • 170500Z AUTO 24003KT 0350 R34/0400N FG VV/// 00/00 Q1007 NOSIG
  • 170430Z AUTO 20003KT 0350 R34/0400N FG VV/// 00/00 Q1007 NOSIG

TAF TAF LFLY
Valido dal 17 a 06 ore il 18 a 06 ore UTC


170500Z 1706/1806 VRB03KT 0500 FG VV///
TEMPO 1706/1709 0300
BECMG 1710/1712 3000 BR OVC005
BECMG 1712/1714 7000 NSW BKN010 BKN030 OVC060
PROB30
TEMPO 1718/1806 2000 -SN
ATIS : +33 4 72 15 87 96



MetMap, La meteo Aeronautica in un colpo d'occhio ! - Copyright ORBIFLY Dicembre 2007 - Disclaimer

ORBIFLY MET'MAP TEAM :

Programmazione e sviluppo : Alexandra Zaïnal
Concezione e sviluppo : Baudouin d'Aumeries
Co-Programmazione e sviluppo : Marc-Olivier Méhu
Supporto tecnico e logistico : Manuel Goepfert
Aiuto per la traduzione : Arnaldo La Scala

Contatto : metmap@orbifly.com




FONTI E CREDITI :

   NOAA